createdAt,value
2018-07-01T00:01:40.303Z,1.10
2018-07-01T00:04:09.302Z,1.03
2018-07-01T00:06:38.092Z,1.10
2018-07-01T00:09:07.930Z,1.07
2018-07-01T00:11:36.683Z,1.00
2018-07-01T00:14:05.989Z,1.03
2018-07-01T00:16:35.070Z,1.03
2018-07-01T00:19:03.845Z,0.90
2018-07-01T00:21:32.776Z,1.03
2018-07-01T00:24:01.575Z,1.27
2018-07-01T00:26:30.296Z,0.90
2018-07-01T00:29:05.764Z,0.93
2018-07-01T00:31:34.833Z,1.20
2018-07-01T00:34:06.783Z,1.50
2018-07-01T00:36:36.387Z,1.40
2018-07-01T00:39:08.454Z,0.97
2018-07-01T00:41:38.102Z,0.93
2018-07-01T00:44:07.646Z,1.30
2018-07-01T00:46:36.951Z,1.03
2018-07-01T00:49:07.795Z,1.00
2018-07-01T00:51:37.506Z,1.27
2018-07-01T00:54:12.031Z,0.90
2018-07-01T00:56:41.629Z,1.00
2018-07-01T00:59:12.692Z,0.90
2018-07-01T01:01:42.939Z,1.40
2018-07-01T01:04:12.740Z,0.90
2018-07-01T01:06:41.537Z,1.10
2018-07-01T01:09:12.461Z,1.00
2018-07-01T01:11:41.694Z,1.10
2018-07-01T01:14:11.215Z,1.20
2018-07-01T01:16:41.203Z,1.10
2018-07-01T01:19:10.169Z,1.00
2018-07-01T01:21:39.616Z,1.10
2018-07-01T01:24:08.304Z,0.90
2018-07-01T01:26:37.785Z,1.10
2018-07-01T01:29:06.495Z,0.90
2018-07-01T01:31:36.238Z,1.00
2018-07-01T01:34:06.060Z,1.10
2018-07-01T01:36:36.759Z,1.00
2018-07-01T01:39:10.008Z,0.87
2018-07-01T01:41:47.304Z,1.10
2018-07-01T01:44:34.900Z,0.97
2018-07-01T01:47:11.755Z,1.00
2018-07-01T01:49:56.045Z,0.90
2018-07-01T01:52:28.933Z,1.00
2018-07-01T01:55:05.023Z,0.80
2018-07-01T01:57:45.487Z,1.10
2018-07-01T02:00:22.352Z,0.90
2018-07-01T02:03:03.239Z,1.00
2018-07-01T02:07:44.220Z,1.00
2018-07-01T02:10:23.470Z,1.03
2018-07-01T02:12:52.462Z,1.00
2018-07-01T02:15:24.843Z,0.80
2018-07-01T02:17:54.582Z,0.97
2018-07-01T02:20:27.283Z,1.00
2018-07-01T02:22:59.611Z,1.03
2018-07-01T02:25:30.485Z,0.80
2018-07-01T02:27:59.218Z,1.03
2018-07-01T02:30:28.062Z,1.13
2018-07-01T02:32:57.542Z,1.40
2018-07-01T02:35:26.319Z,1.00
2018-07-01T02:37:55.185Z,1.00
2018-07-01T02:40:23.858Z,1.00
2018-07-01T02:42:52.570Z,1.30
2018-07-01T02:45:21.519Z,0.93
2018-07-01T02:47:50.296Z,1.00
2018-07-01T02:50:19.013Z,1.33
2018-07-01T02:52:47.751Z,1.10
2018-07-01T02:55:16.605Z,1.00
2018-07-01T02:57:46.450Z,1.23
2018-07-01T03:00:20.729Z,1.10
2018-07-01T03:02:50.345Z,1.00
2018-07-01T03:05:19.117Z,1.30
2018-07-01T03:07:47.846Z,1.17
2018-07-01T03:10:16.589Z,1.00
2018-07-01T03:12:45.410Z,1.10
2018-07-01T03:15:14.490Z,1.10
2018-07-01T03:17:43.571Z,1.37
2018-07-01T03:20:12.436Z,0.90
2018-07-01T03:22:41.277Z,1.53
2018-07-01T03:25:10.038Z,0.90
2018-07-01T03:27:38.794Z,1.00
2018-07-01T03:30:07.514Z,1.00
2018-07-01T03:32:37.868Z,1.03
2018-07-01T03:35:07.581Z,1.07
2018-07-01T03:37:36.852Z,1.10
2018-07-01T03:40:06.761Z,1.00
2018-07-01T03:42:39.059Z,1.00
2018-07-01T03:45:08.118Z,1.37
2018-07-01T03:47:36.999Z,0.87
2018-07-01T03:50:06.368Z,1.10
2018-07-01T03:52:35.318Z,0.90
2018-07-01T03:55:04.198Z,0.77
2018-07-01T03:57:32.966Z,1.40
2018-07-01T04:00:01.771Z,1.10
2018-07-01T04:02:30.489Z,0.97
2018-07-01T04:04:59.161Z,1.27
2018-07-01T04:07:27.910Z,0.97
2018-07-01T04:09:56.853Z,1.10
2018-07-01T04:12:25.551Z,1.10
2018-07-01T04:14:54.306Z,1.13
2018-07-01T04:17:24.037Z,1.00
2018-07-01T04:19:52.907Z,1.50
2018-07-01T04:22:21.811Z,1.20
2018-07-01T04:24:51.089Z,1.07
2018-07-01T04:27:19.974Z,1.13
2018-07-01T04:29:49.053Z,1.07
2018-07-01T04:32:18.621Z,1.00
2018-07-01T04:34:48.654Z,1.20
2018-07-01T04:37:17.993Z,1.00
2018-07-01T04:39:50.536Z,1.10
2018-07-01T04:42:19.212Z,1.00
2018-07-01T04:44:51.465Z,1.17
2018-07-01T04:47:20.648Z,1.13
2018-07-01T04:49:49.649Z,1.13
2018-07-01T04:52:18.330Z,1.00
2018-07-01T04:54:47.284Z,1.07
2018-07-01T04:57:15.965Z,1.80
2018-07-01T04:59:44.705Z,1.13
2018-07-01T05:02:14.092Z,1.30
2018-07-01T05:04:43.393Z,1.30
2018-07-01T05:07:12.795Z,0.97
2018-07-01T05:09:41.990Z,0.80
2018-07-01T05:12:10.746Z,1.10
2018-07-01T05:14:39.753Z,0.90
2018-07-01T05:17:08.588Z,0.80
2018-07-01T05:19:37.380Z,1.40
2018-07-01T05:22:06.726Z,0.90
2018-07-01T05:24:35.425Z,1.03
2018-07-01T05:27:04.241Z,1.00
2018-07-01T05:29:33.056Z,1.23
2018-07-01T05:32:01.762Z,1.10
2018-07-01T05:34:30.459Z,0.90
2018-07-01T05:36:59.110Z,1.00
2018-07-01T05:39:27.795Z,0.87
2018-07-01T05:41:56.482Z,1.13
2018-07-01T05:44:25.472Z,0.90
2018-07-01T05:46:54.793Z,1.13
2018-07-01T05:49:26.005Z,1.30
2018-07-01T05:51:54.778Z,1.00
2018-07-01T05:54:27.295Z,0.73
2018-07-01T05:56:57.375Z,0.80
2018-07-01T05:59:26.059Z,1.10
2018-07-01T06:01:55.208Z,1.10
2018-07-01T06:04:24.114Z,0.87
2018-07-01T06:06:52.903Z,0.70
2018-07-01T06:09:21.730Z,0.80
2018-07-01T06:11:50.757Z,0.87
2018-07-01T06:14:26.701Z,1.00
2018-07-01T06:16:56.041Z,1.10
2018-07-01T06:19:24.995Z,0.80
2018-07-01T06:21:54.081Z,0.97
2018-07-01T06:24:22.853Z,1.10
2018-07-01T06:26:57.252Z,0.90
2018-07-01T06:29:25.904Z,0.90
2018-07-01T06:31:58.746Z,1.07
2018-07-01T06:34:29.444Z,0.90
2018-07-01T06:37:00.016Z,0.93
2018-07-01T06:39:28.899Z,0.90
2018-07-01T06:41:57.618Z,0.80
2018-07-01T06:44:26.570Z,0.87
2018-07-01T06:46:55.338Z,0.70
2018-07-01T06:49:24.049Z,0.83
2018-07-01T06:51:53.070Z,1.00
2018-07-01T06:54:22.414Z,0.60
2018-07-01T06:56:51.394Z,0.90
2018-07-01T06:59:20.179Z,0.87
2018-07-01T07:01:48.924Z,0.70
2018-07-01T07:04:21.813Z,0.57
2018-07-01T07:06:50.577Z,0.70
2018-07-01T07:09:19.231Z,0.60
2018-07-01T07:11:48.132Z,0.50
2018-07-01T07:14:16.969Z,0.73
2018-07-01T07:16:46.190Z,0.90
2018-07-01T07:19:21.675Z,0.60
2018-07-01T07:21:50.757Z,0.60
2018-07-01T07:24:20.513Z,0.50
2018-07-01T07:26:51.337Z,0.80
2018-07-01T07:30:00.423Z,0.70
2018-07-01T07:32:29.502Z,0.70
2018-07-01T07:34:58.330Z,0.63
2018-07-01T07:37:27.529Z,0.50
2018-07-01T07:39:56.648Z,0.70
2018-07-01T07:42:25.396Z,0.70
2018-07-01T07:44:57.400Z,0.70
2018-07-01T07:47:26.281Z,0.53
2018-07-01T07:49:55.058Z,0.80
2018-07-01T07:52:23.964Z,0.50
2018-07-01T07:54:55.737Z,0.73
2018-07-01T07:57:24.594Z,0.70
2018-07-01T07:59:53.256Z,0.60
2018-07-01T08:02:23.393Z,0.50
2018-07-01T08:04:52.086Z,0.80
2018-07-01T08:07:21.611Z,0.70
2018-07-01T08:09:50.692Z,0.50
2018-07-01T08:12:20.021Z,0.60
2018-07-01T08:14:50.147Z,0.60
2018-07-01T08:17:19.321Z,0.60
2018-07-01T08:19:48.390Z,0.70
2018-07-01T08:22:19.357Z,0.47
2018-07-01T08:24:50.643Z,0.60
2018-07-01T08:27:20.237Z,0.40
2018-07-01T08:29:50.262Z,0.53
2018-07-01T08:32:21.060Z,0.63
2018-07-01T08:34:54.504Z,0.70
2018-07-01T08:37:23.952Z,0.50
2018-07-01T08:39:54.973Z,0.40
2018-07-01T08:42:33.673Z,0.77
2018-07-01T08:45:08.787Z,0.70
2018-07-01T08:47:47.204Z,0.60
2018-07-01T08:50:16.274Z,0.60
2018-07-01T08:52:46.659Z,0.80
2018-07-01T08:55:17.055Z,0.60
2018-07-01T08:57:46.712Z,0.70
2018-07-01T09:00:18.775Z,0.70
2018-07-01T09:02:50.027Z,0.53
2018-07-01T09:05:18.941Z,0.80
2018-07-01T09:07:47.954Z,0.50
2018-07-01T09:10:19.525Z,0.70
2018-07-01T09:12:49.189Z,0.70
2018-07-01T09:20:52.786Z,0.50
2018-07-01T09:23:21.554Z,0.50
2018-07-01T09:25:52.849Z,1.00
2018-07-01T09:28:21.721Z,0.70
2018-07-01T09:30:56.414Z,0.87
2018-07-01T09:33:40.287Z,0.57
2018-07-01T09:36:09.395Z,0.50
2018-07-01T09:38:38.041Z,0.67
2018-07-01T09:41:06.791Z,0.80
2018-07-01T09:43:36.514Z,0.60
2018-07-01T09:46:05.265Z,0.43
2018-07-01T09:48:34.035Z,0.50
2018-07-01T09:51:09.889Z,0.60
2018-07-01T09:53:39.033Z,0.50
2018-07-01T09:56:11.454Z,0.80
2018-07-01T09:58:40.704Z,0.83
2018-07-01T10:01:09.635Z,0.70
2018-07-01T10:03:43.509Z,0.70
2018-07-01T10:06:21.030Z,0.97
2018-07-01T10:08:50.350Z,0.53
2018-07-01T10:11:19.247Z,0.57
2018-07-01T10:13:48.076Z,0.80
2018-07-01T10:16:17.590Z,0.50
2018-07-01T10:18:50.325Z,0.70
2018-07-01T10:21:18.998Z,0.60
2018-07-01T10:23:48.401Z,0.50
2018-07-01T10:26:17.062Z,0.70
2018-07-01T10:29:02.188Z,0.50
2018-07-01T10:31:31.070Z,0.80
2018-07-01T10:34:01.019Z,0.50
2018-07-01T10:36:29.908Z,0.50
2018-07-01T10:38:58.799Z,0.70
2018-07-01T10:41:31.686Z,0.80
2018-07-01T10:44:09.116Z,0.67
2018-07-01T10:46:44.676Z,0.80
2018-07-01T10:49:15.710Z,0.50
2018-07-01T10:51:45.425Z,0.60
2018-07-01T10:54:14.496Z,0.50
2018-07-01T10:56:43.391Z,0.67
2018-07-01T10:59:13.886Z,0.70
2018-07-01T11:01:42.757Z,0.50
2018-07-01T11:04:13.958Z,0.70
2018-07-01T11:06:45.615Z,0.50
2018-07-01T11:09:14.723Z,0.77
2018-07-01T11:11:50.991Z,0.60
2018-07-01T11:14:24.659Z,0.60
2018-07-01T11:16:53.328Z,0.70
2018-07-01T11:19:23.009Z,1.00
2018-07-01T11:21:54.058Z,0.80
2018-07-01T11:24:43.562Z,0.70
2018-07-01T11:27:18.731Z,0.77
2018-07-01T11:30:00.940Z,0.93
2018-07-01T11:32:29.914Z,0.80
2018-07-01T11:34:58.863Z,0.70
2018-07-01T11:37:27.963Z,0.60
2018-07-01T11:42:43.798Z,0.83
2018-07-01T11:45:12.889Z,0.90
2018-07-01T11:47:44.239Z,1.90
2018-07-01T11:50:15.536Z,4.23
2018-07-01T11:52:48.409Z,1.10
2018-07-01T11:55:18.235Z,1.10
2018-07-01T11:57:52.724Z,0.80
2018-07-01T12:00:22.278Z,1.37
2018-07-01T12:02:51.010Z,0.70
2018-07-01T12:05:25.160Z,0.77
2018-07-01T12:11:06.018Z,0.83
2018-07-01T12:13:41.871Z,0.85
2018-07-01T12:16:13.954Z,0.50
2018-07-01T12:18:44.901Z,1.07
2018-07-01T12:21:19.777Z,0.60
2018-07-01T12:23:49.233Z,0.60
2018-07-01T12:26:25.648Z,0.50
2018-07-01T12:28:54.507Z,0.75
2018-07-01T12:31:23.151Z,1.27
2018-07-01T12:33:52.161Z,0.68
2018-07-01T12:36:22.482Z,0.47
2018-07-01T12:38:53.623Z,0.60
2018-07-01T12:41:34.169Z,0.50
2018-07-01T12:44:02.997Z,0.60
2018-07-01T12:46:32.171Z,0.60
2018-07-01T12:49:04.425Z,0.50
2018-07-01T12:51:33.419Z,0.50
2018-07-01T12:54:02.274Z,0.57
2018-07-01T12:56:31.274Z,0.60
2018-07-01T12:59:00.324Z,0.60
2018-07-01T13:01:30.897Z,0.57
2018-07-01T13:03:59.708Z,1.00
2018-07-01T13:06:29.346Z,1.12
2018-07-01T13:08:58.250Z,0.60
2018-07-01T13:11:27.220Z,0.60
2018-07-01T13:13:56.167Z,0.55
2018-07-01T13:16:24.844Z,0.75
2018-07-01T13:18:54.592Z,0.72
2018-07-01T13:26:57.433Z,1.27
2018-07-01T13:29:26.410Z,0.90
2018-07-01T13:31:55.198Z,0.60
2018-07-01T13:34:35.821Z,0.57
2018-07-01T13:37:04.733Z,0.68
2018-07-01T13:39:33.487Z,0.60
2018-07-01T13:42:02.383Z,0.60
2018-07-01T13:44:31.366Z,0.67
2018-07-01T13:47:00.099Z,0.83
2018-07-01T13:49:28.793Z,0.83
2018-07-01T13:52:05.241Z,0.70
2018-07-01T13:54:36.566Z,0.57
2018-07-01T13:57:07.689Z,0.88
2018-07-01T13:59:38.533Z,0.57
2018-07-01T14:05:03.672Z,0.60
2018-07-01T14:07:35.174Z,0.40
2018-07-01T14:10:18.082Z,0.90
2018-07-01T14:12:47.194Z,0.70
2018-07-01T14:17:56.435Z,0.63
2018-07-01T14:23:24.030Z,0.80
2018-07-01T14:25:53.269Z,0.60
2018-07-01T14:28:23.968Z,0.60
2018-07-01T14:30:53.753Z,0.85
2018-07-01T14:33:22.993Z,0.70
2018-07-01T14:35:51.709Z,0.80
2018-07-01T14:38:20.427Z,0.73
2018-07-01T14:40:49.614Z,0.70
2018-07-01T14:43:18.278Z,0.70
2018-07-01T14:45:47.018Z,0.50
2018-07-01T14:48:15.700Z,0.80
2018-07-01T14:50:45.940Z,0.60
2018-07-01T14:53:15.242Z,0.47
2018-07-01T14:55:43.924Z,0.60
2018-07-01T14:58:12.986Z,0.70
2018-07-01T15:00:41.887Z,0.50
2018-07-01T15:03:10.894Z,0.60
2018-07-01T15:05:39.526Z,0.80
2018-07-01T15:08:09.368Z,0.57
2018-07-01T15:10:39.298Z,0.50
2018-07-01T15:13:09.334Z,0.60
2018-07-01T15:15:39.750Z,0.60
2018-07-01T15:18:10.029Z,0.60
2018-07-01T15:20:39.853Z,0.70
2018-07-01T15:23:11.648Z,0.60
2018-07-01T15:25:42.311Z,0.70
2018-07-01T15:28:15.283Z,0.50
2018-07-01T15:30:45.852Z,1.00
2018-07-01T15:33:16.954Z,1.07
2018-07-01T15:35:45.838Z,0.77
2018-07-01T15:38:15.133Z,0.70
2018-07-01T15:40:44.062Z,0.60
2018-07-01T15:43:12.823Z,0.90
2018-07-01T15:45:43.959Z,0.70
2018-07-01T15:48:12.690Z,0.87
2018-07-01T15:50:41.635Z,0.87
2018-07-01T15:53:10.483Z,1.10
2018-07-01T15:55:39.958Z,0.77
2018-07-01T15:58:11.136Z,0.70
2018-07-01T16:00:39.883Z,0.70
2018-07-01T16:03:08.712Z,0.70
2018-07-01T16:05:37.381Z,0.77
2018-07-01T16:08:06.073Z,0.50
2018-07-01T16:10:34.914Z,0.40
2018-07-01T16:13:03.586Z,0.60
2018-07-01T16:15:32.385Z,0.63
2018-07-01T16:18:01.058Z,1.00
2018-07-01T16:20:30.763Z,0.80
2018-07-01T16:22:59.485Z,0.60
2018-07-01T16:25:33.902Z,0.60
2018-07-01T16:28:09.967Z,0.60
2018-07-01T16:30:41.120Z,0.60
2018-07-01T16:33:12.340Z,0.57
2018-07-01T16:35:42.011Z,0.70
2018-07-01T16:38:10.703Z,0.70
2018-07-01T16:40:41.169Z,0.73
2018-07-01T16:43:09.920Z,0.70
2018-07-01T16:45:40.953Z,0.83
2018-07-01T16:48:20.560Z,0.60
2018-07-01T16:50:50.530Z,0.60
2018-07-01T16:53:21.935Z,0.50
2018-07-01T16:55:55.867Z,0.83
2018-07-01T16:58:24.754Z,0.80
2018-07-01T17:00:55.006Z,0.63
2018-07-01T17:03:23.688Z,0.70
2018-07-01T17:05:53.515Z,0.53
2018-07-01T17:08:22.185Z,0.50
2018-07-01T17:10:51.177Z,0.73
2018-07-01T17:13:22.457Z,0.90
2018-07-01T17:15:53.617Z,0.63
2018-07-01T17:18:24.187Z,0.60
2018-07-01T17:20:53.362Z,0.67
2018-07-01T17:23:22.643Z,0.60
2018-07-01T17:25:52.975Z,0.60
2018-07-01T17:28:22.772Z,0.70
2018-07-01T17:30:56.719Z,0.80
2018-07-01T17:33:31.681Z,0.50
2018-07-01T17:36:00.524Z,0.70
2018-07-01T17:38:39.342Z,0.60
2018-07-01T17:41:09.385Z,0.60
2018-07-01T17:43:42.414Z,0.80
2018-07-01T17:46:14.027Z,0.60
2018-07-01T17:48:43.073Z,0.60
2018-07-01T17:51:11.889Z,0.80
2018-07-01T17:53:52.731Z,0.47
2018-07-01T17:56:21.955Z,0.50
2018-07-01T17:58:57.496Z,0.70
2018-07-01T18:01:28.349Z,0.67
2018-07-01T18:03:57.390Z,0.60
2018-07-01T18:06:26.082Z,0.67
2018-07-01T18:08:54.750Z,0.60
2018-07-01T18:11:27.565Z,0.83
2018-07-01T18:13:56.316Z,0.57
2018-07-01T18:16:25.556Z,0.77
2018-07-01T18:18:54.411Z,0.53
2018-07-01T18:21:44.902Z,0.73
2018-07-01T18:24:27.539Z,0.60
2018-07-01T18:26:25.735Z,0.70
2018-07-01T18:29:05.476Z,0.50
2018-07-01T18:31:23.473Z,0.67
2018-07-01T18:34:00.257Z,0.60
2018-07-01T18:36:31.088Z,0.60
2018-07-01T18:39:01.665Z,0.57
2018-07-01T18:41:34.059Z,0.70
2018-07-01T18:44:05.448Z,0.60
2018-07-01T18:46:36.029Z,0.60
2018-07-01T18:49:06.424Z,0.70
2018-07-01T18:51:36.767Z,0.50
2018-07-01T18:54:05.906Z,1.00
2018-07-01T18:56:34.723Z,1.00
2018-07-01T18:59:04.632Z,0.77
2018-07-01T19:01:35.470Z,0.90
2018-07-01T19:04:05.763Z,1.10
2018-07-01T19:06:52.993Z,1.20
2018-07-01T19:09:23.177Z,1.50
2018-07-01T19:11:55.630Z,1.67
2018-07-01T19:14:25.561Z,1.43
2018-07-01T19:16:55.970Z,1.53
2018-07-01T19:19:25.074Z,1.60
2018-07-01T19:21:53.899Z,1.60
2018-07-01T19:24:22.829Z,1.90
2018-07-01T19:26:51.641Z,1.80
2018-07-01T19:29:20.836Z,1.70
2018-07-01T19:31:58.737Z,1.40
2018-07-01T19:37:04.250Z,1.67
2018-07-01T19:39:32.977Z,1.60
2018-07-01T19:42:04.726Z,1.60
2018-07-01T19:44:35.641Z,1.33
2018-07-01T19:47:05.038Z,1.60
2018-07-01T19:49:36.781Z,1.60
2018-07-01T19:52:06.483Z,1.70
2018-07-01T19:54:37.852Z,1.40
2018-07-01T19:57:08.526Z,1.23
2018-07-01T19:59:38.505Z,1.30
2018-07-01T20:02:29.619Z,1.30
2018-07-01T20:05:05.274Z,1.43
2018-07-01T20:07:51.089Z,1.77
2018-07-01T20:13:24.269Z,1.20
2018-07-01T20:15:54.421Z,1.20
2018-07-01T20:26:05.317Z,1.17
2018-07-01T20:31:17.705Z,0.97
2018-07-01T20:33:48.463Z,1.20
2018-07-01T20:36:49.098Z,0.90
2018-07-01T20:39:20.738Z,0.80
2018-07-01T20:42:10.147Z,0.73
2018-07-01T20:48:01.568Z,1.03
2018-07-01T20:50:30.699Z,1.13
2018-07-01T20:53:01.238Z,1.20
2018-07-01T21:03:31.912Z,1.10
2018-07-01T21:06:17.942Z,0.80
2018-07-01T21:08:57.645Z,0.70
2018-07-01T21:11:27.282Z,0.90
2018-07-01T21:14:01.657Z,0.73
2018-07-01T21:16:37.206Z,1.00
2018-07-01T21:19:08.238Z,0.97
2018-07-01T21:21:37.216Z,0.90
2018-07-01T21:24:06.810Z,0.73
2018-07-01T21:26:38.201Z,0.80
2018-07-01T21:29:07.078Z,0.77
2018-07-01T21:31:39.029Z,0.70
2018-07-01T21:34:09.691Z,0.67
2018-07-01T21:36:39.470Z,0.83
2018-07-01T21:39:11.611Z,0.93
2018-07-01T21:41:41.719Z,0.80
2018-07-01T21:44:16.649Z,0.80
2018-07-01T21:46:46.744Z,0.93
2018-07-01T21:49:22.625Z,0.73
2018-07-01T21:51:52.540Z,0.60
2018-07-01T21:54:24.514Z,0.70
2018-07-01T21:56:54.317Z,0.90
2018-07-01T21:59:23.347Z,0.70
2018-07-01T22:01:52.358Z,0.67
2018-07-01T22:04:21.693Z,0.80
2018-07-01T22:06:55.778Z,0.60
2018-07-01T22:15:26.119Z,0.70
2018-07-01T22:17:56.071Z,0.70
2018-07-01T22:20:25.365Z,0.73
2018-07-01T22:22:54.387Z,0.80
2018-07-01T22:34:10.450Z,0.90
2018-07-01T22:36:45.627Z,0.80
2018-07-01T22:39:19.531Z,0.53
2018-07-01T22:41:49.188Z,0.60
2018-07-01T22:44:18.140Z,0.73
2018-07-01T22:46:47.495Z,0.80
2018-07-01T22:49:16.402Z,0.70
2018-07-01T22:51:45.345Z,0.93
2018-07-01T22:54:14.253Z,1.00
2018-07-01T22:56:43.266Z,0.60
2018-07-01T22:59:12.143Z,0.70
2018-07-01T23:01:56.706Z,1.00
2018-07-01T23:04:25.611Z,0.70
2018-07-01T23:06:54.372Z,0.73
2018-07-01T23:09:23.538Z,0.70
2018-07-01T23:14:34.860Z,0.70
2018-07-01T23:17:03.771Z,0.70
2018-07-01T23:19:32.843Z,0.80
2018-07-01T23:22:02.263Z,0.50
2018-07-01T23:24:31.294Z,0.60
2018-07-01T23:27:00.431Z,0.70
2018-07-01T23:29:32.685Z,0.60
2018-07-01T23:32:02.953Z,0.70
2018-07-01T23:34:32.004Z,1.23
2018-07-01T23:37:00.976Z,0.60
2018-07-01T23:39:30.138Z,0.60
2018-07-01T23:42:08.079Z,0.73
2018-07-01T23:44:37.444Z,0.80
2018-07-01T23:47:06.470Z,0.70
2018-07-01T23:49:35.720Z,0.50
2018-07-01T23:52:04.661Z,0.50
2018-07-01T23:54:33.559Z,0.70
2018-07-01T23:57:02.670Z,0.60
2018-07-01T23:59:31.664Z,0.70
